createdAt,value
2019-01-28T00:00:02.775Z,4.90
2019-01-28T00:05:07.208Z,5.10
2019-01-28T00:10:11.407Z,5.10
2019-01-28T00:15:15.641Z,5.00
2019-01-28T00:20:19.931Z,4.90
2019-01-28T00:25:24.166Z,4.80
2019-01-28T00:30:28.453Z,4.60
2019-01-28T00:35:32.636Z,4.80
2019-01-28T00:40:36.958Z,4.80
2019-01-28T00:45:41.168Z,4.80
2019-01-28T00:50:45.342Z,4.70
2019-01-28T00:55:49.629Z,4.50
2019-01-28T01:00:53.838Z,4.60
2019-01-28T01:05:58.002Z,4.40
2019-01-28T01:11:03.473Z,4.30
2019-01-28T01:16:07.680Z,4.40
2019-01-28T01:21:11.880Z,4.40
2019-01-28T01:26:16.143Z,4.60
2019-01-28T01:31:20.543Z,4.60
2019-01-28T01:36:24.736Z,4.60
2019-01-28T01:41:28.939Z,4.50
2019-01-28T01:46:34.259Z,4.60
2019-01-28T01:51:38.531Z,5.00
2019-01-28T01:56:42.723Z,5.00
2019-01-28T02:01:46.920Z,5.00
2019-01-28T02:06:51.206Z,4.90
2019-01-28T02:11:55.399Z,5.00
2019-01-28T02:16:59.591Z,5.20
2019-01-28T02:22:03.895Z,4.90
2019-01-28T02:27:08.103Z,4.70
2019-01-28T02:32:12.443Z,4.80
2019-01-28T02:37:16.793Z,5.20
2019-01-28T02:42:20.990Z,5.10
2019-01-28T02:47:25.287Z,5.10
2019-01-28T02:52:29.451Z,5.00
2019-01-28T02:57:33.655Z,4.90
2019-01-28T03:02:37.907Z,5.10
2019-01-28T03:07:42.151Z,5.00
2019-01-28T03:12:46.424Z,5.10
2019-01-28T03:17:50.620Z,5.20
2019-01-28T03:22:54.872Z,5.10
2019-01-28T03:27:59.059Z,5.00
2019-01-28T03:33:03.245Z,4.90
2019-01-28T03:38:07.672Z,4.80
2019-01-28T03:43:11.923Z,4.80
2019-01-28T03:48:16.098Z,4.70
2019-01-28T03:53:20.754Z,4.90
2019-01-28T03:58:24.984Z,5.00
2019-01-28T04:03:29.319Z,4.90
2019-01-28T04:08:33.534Z,4.70
2019-01-28T04:13:40.471Z,4.60
2019-01-28T04:18:44.730Z,4.90
2019-01-28T04:23:48.934Z,4.90
2019-01-28T04:28:53.147Z,5.00
2019-01-28T04:33:57.350Z,4.80
2019-01-28T04:39:01.773Z,4.90
2019-01-28T04:44:05.927Z,5.10
2019-01-28T04:49:10.117Z,5.00
2019-01-28T04:54:14.291Z,4.90
2019-01-28T04:59:18.547Z,5.00
2019-01-28T05:04:22.818Z,5.10
2019-01-28T05:09:28.464Z,5.00
2019-01-28T05:14:32.671Z,4.90
2019-01-28T05:19:36.891Z,4.70
2019-01-28T05:24:41.459Z,4.80
2019-01-28T05:29:45.692Z,4.60
2019-01-28T05:34:49.855Z,4.70
2019-01-28T05:39:54.123Z,4.70
2019-01-28T05:44:58.296Z,4.70
2019-01-28T05:50:02.466Z,4.80
2019-01-28T05:55:07.519Z,4.80
2019-01-28T06:00:15.763Z,4.80
2019-01-28T06:05:19.950Z,4.60
2019-01-28T06:10:24.106Z,4.50
2019-01-28T06:15:28.300Z,4.60
2019-01-28T06:20:32.479Z,4.90
2019-01-28T06:25:36.701Z,4.80
2019-01-28T06:30:40.878Z,4.80
2019-01-28T06:35:45.198Z,4.90
2019-01-28T06:40:49.458Z,4.80
2019-01-28T06:45:53.643Z,4.80
2019-01-28T06:50:57.827Z,5.00
2019-01-28T06:56:02.033Z,5.00
2019-01-28T07:01:06.407Z,5.30
2019-01-28T07:06:10.580Z,5.20
2019-01-28T07:11:14.752Z,5.30
2019-01-28T07:16:18.954Z,5.20
2019-01-28T10:33:50.455Z,5.50
2019-01-28T10:38:54.634Z,6.30
2019-01-28T10:43:58.846Z,8.10
2019-01-28T10:49:03.117Z,8.00
2019-01-28T10:54:07.324Z,7.40
2019-01-28T10:59:11.619Z,6.90
2019-01-28T11:04:15.958Z,6.60
2019-01-28T11:09:20.220Z,6.80
2019-01-28T11:14:24.553Z,7.30
2019-01-28T11:19:28.827Z,6.70
2019-01-28T11:24:33.086Z,7.00
2019-01-28T11:29:37.573Z,6.70
2019-01-28T11:34:41.926Z,6.00
2019-01-28T11:39:46.147Z,6.20
2019-01-28T11:44:50.479Z,5.90
2019-01-28T11:49:54.675Z,5.80
2019-01-28T11:54:58.872Z,5.70
2019-01-28T12:00:04.596Z,5.90
2019-01-28T12:05:10.845Z,6.40
2019-01-28T12:10:15.719Z,6.40
2019-01-28T12:15:20.396Z,6.30
2019-01-28T12:20:24.579Z,6.30
2019-01-28T12:25:28.866Z,6.10
2019-01-28T12:30:33.543Z,6.20
2019-01-28T12:35:37.731Z,6.30
2019-01-28T12:40:41.927Z,6.30
2019-01-28T12:45:46.158Z,6.40
2019-01-28T12:50:50.363Z,6.50
2019-01-28T12:55:55.619Z,6.40
2019-01-28T13:01:02.947Z,6.10
2019-01-28T13:06:07.151Z,6.20
2019-01-28T13:11:11.344Z,6.00
2019-01-28T13:16:15.670Z,6.10
2019-01-28T13:21:19.947Z,5.80
2019-01-28T13:26:24.264Z,5.70
2019-01-28T13:31:32.728Z,5.60
2019-01-28T13:36:34.388Z,5.70
2019-01-28T13:41:39.918Z,5.70
2019-01-28T13:46:44.916Z,5.80
2019-01-28T13:51:49.231Z,5.60
2019-01-28T13:56:53.494Z,5.70
2019-01-28T14:01:57.800Z,5.40
2019-01-28T14:07:01.992Z,5.40
2019-01-28T14:12:06.476Z,5.30
2019-01-28T14:17:10.697Z,5.20
2019-01-28T14:22:14.915Z,5.10
2019-01-28T14:27:19.155Z,4.80
2019-01-28T14:32:23.386Z,4.60
2019-01-28T14:37:27.756Z,4.40
2019-01-28T14:42:33.163Z,4.40
2019-01-28T14:47:37.347Z,4.40
2019-01-28T14:52:41.535Z,4.40
2019-01-28T14:57:45.801Z,4.50
2019-01-28T15:02:50.080Z,4.60
2019-01-28T15:07:54.447Z,4.60
2019-01-28T15:12:58.681Z,4.50
2019-01-28T15:18:02.867Z,4.60
2019-01-28T15:23:07.050Z,4.60
2019-01-28T15:28:11.390Z,4.70
2019-01-28T15:33:15.647Z,4.80
2019-01-28T15:38:19.963Z,4.70
2019-01-28T15:43:24.203Z,4.60
2019-01-28T15:48:28.549Z,4.70
2019-01-28T15:53:32.761Z,4.80
2019-01-28T15:58:36.967Z,4.60
2019-01-28T16:03:41.324Z,4.70
2019-01-28T16:08:45.548Z,4.70
2019-01-28T16:13:49.868Z,4.70
2019-01-28T16:18:54.088Z,4.80
2019-01-28T16:23:58.336Z,4.80
2019-01-28T16:29:02.596Z,4.80
2019-01-28T16:34:06.793Z,4.80
2019-01-28T16:39:11.011Z,4.70
2019-01-28T16:44:15.336Z,4.70
2019-01-28T16:49:19.565Z,4.90
2019-01-28T16:54:23.823Z,5.00
2019-01-28T16:59:28.123Z,5.00
2019-01-28T17:04:32.368Z,4.90
2019-01-28T17:09:36.596Z,4.90
2019-01-28T17:14:40.835Z,4.90
2019-01-28T17:19:45.053Z,5.10
2019-01-28T17:24:49.272Z,5.00
2019-01-28T17:29:53.491Z,4.70
2019-01-28T17:34:57.764Z,4.50
2019-01-28T17:40:01.966Z,4.20
2019-01-28T17:45:08.092Z,3.90
2019-01-28T17:50:14.465Z,3.70
2019-01-28T17:55:18.739Z,3.70
2019-01-28T18:00:32.827Z,3.50
2019-01-28T18:05:39.189Z,3.50
2019-01-28T18:10:43.462Z,3.40
2019-01-28T18:15:47.984Z,3.40
2019-01-28T18:20:53.736Z,3.20
2019-01-28T18:25:58.072Z,3.10
2019-01-28T18:31:02.379Z,3.10
2019-01-28T18:36:08.741Z,3.00
2019-01-28T18:41:13.050Z,3.10
2019-01-28T18:46:17.344Z,3.00
2019-01-28T18:51:21.575Z,3.00
2019-01-28T18:56:25.956Z,3.10
2019-01-28T19:01:30.288Z,2.80
2019-01-28T19:06:51.000Z,3.00
2019-01-28T19:12:14.274Z,2.90
2019-01-28T19:17:40.180Z,2.70
2019-01-28T19:22:45.056Z,2.60
2019-01-28T19:27:49.384Z,2.70
2019-01-28T19:32:53.748Z,2.70
2019-01-28T19:37:58.001Z,2.80
2019-01-28T19:43:02.198Z,2.80
2019-01-28T19:48:07.138Z,2.80
2019-01-28T19:53:11.759Z,2.70
2019-01-28T19:58:16.100Z,2.80
2019-01-28T20:03:20.766Z,2.70
2019-01-28T20:08:25.220Z,2.70
2019-01-28T20:13:29.936Z,2.70
2019-01-28T20:18:35.441Z,2.70
2019-01-28T20:23:39.747Z,2.70
2019-01-28T20:28:44.162Z,2.70
2019-01-28T20:33:48.467Z,2.60
2019-01-28T20:38:52.718Z,2.50
2019-01-28T20:43:56.938Z,2.60
2019-01-28T20:49:01.217Z,2.60
2019-01-28T20:54:05.743Z,2.40
2019-01-28T20:59:10.058Z,2.40
2019-01-28T21:04:14.387Z,2.30
2019-01-28T21:09:18.773Z,2.40
2019-01-28T21:14:23.134Z,2.40
2019-01-28T21:19:27.513Z,2.40
2019-01-28T21:24:31.929Z,2.50
2019-01-28T21:29:36.237Z,2.50
2019-01-28T21:34:40.440Z,2.50
2019-01-28T21:39:46.160Z,2.70
2019-01-28T21:44:50.391Z,2.70
2019-01-28T21:49:54.592Z,2.70
2019-01-28T21:54:59.476Z,3.00
2019-01-28T22:00:05.128Z,2.80
2019-01-28T22:05:09.428Z,2.90
2019-01-28T22:10:14.923Z,2.80
2019-01-28T22:15:19.317Z,2.80
2019-01-28T22:20:23.676Z,2.80
2019-01-28T22:25:27.990Z,2.80
2019-01-28T22:30:32.348Z,2.60
2019-01-28T22:35:36.665Z,2.70
2019-01-28T22:40:40.859Z,2.50
2019-01-28T22:45:45.051Z,2.50
2019-01-28T22:50:49.269Z,2.60
2019-01-28T22:55:53.491Z,2.50
2019-01-28T23:01:18.006Z,2.40
2019-01-28T23:06:22.203Z,2.40
2019-01-28T23:11:27.032Z,2.20
2019-01-28T23:16:31.332Z,2.20
2019-01-28T23:21:36.168Z,2.20
2019-01-28T23:26:40.578Z,2.30
2019-01-28T23:31:44.783Z,2.20
2019-01-28T23:36:49.086Z,2.20
2019-01-28T23:41:53.300Z,2.10
2019-01-28T23:46:57.540Z,2.20
2019-01-28T23:52:01.738Z,2.20
2019-01-28T23:57:05.974Z,2.10
